Tiempo atmosférico en la estación meteorológica de Ibias, San Antolin, Asturias (762 m.)



Fecha
DESCASC
Temp. máxima en grados centígrados (hora)
DESCASC
Temp. mínima en grados centígrados (hora)
DESCASC
Temp. media en grados centígrados
DESCASC
Racha de viento máxima en m/sg (hora)
DESCASC
Velocidad máxima media en intervalos de 10 minutos(hora)
DESCASC
Precipitaciones diarias en mm
DESCASC
Precipitaciones de 00:00 a 06:00 en mm
DESCASC
Precipitaciones de 06:00 a 12:00 en mm
DESCASC
Precipitaciones de 12:00 a 18:00 en mm
DESCASC
Precipitaciones de 18:00 a 24:00 en mm
DESCASC
10-09-2019 13.1 (14:10) 8.1 (07:20) 10.6 9.72 (17:40) 4.44 (20:40) 1.4 0.8 0.2 0.4 0
11-09-2019 21.2 (16:40) 10 (00:00) 15.6 9.72 (13:20) 5 (14:00) 0.4 0.2 0.2 0 0
05-09-2019 19.6 (14:20) 10.8 (00:00) 15.2 16.39 (10:40) 10 (10:40) 0 0 0 0 0
19-09-2019 27.3 (17:00) 14.4 (00:00) 20.8 8.61 (17:40) 4.17 (17:40) 0 0 0 0 0
18-09-2019 26 (16:20) 12.6 (00:00) 19.3 7.78 (16:20) 4.17 (14:30) 0 0 0 0 0
17-09-2019 24.5 (13:50) 15 (00:00) 19.8 14.72 (16:50) 10.28 (16:50) 0.8 0 0 0 0.8
16-09-2019 25.2 (18:00) 14.2 (00:00) 19.7 9.17 (19:00) 3.89 (19:30) 0 0 0 0 0
15-09-2019 27.9 (15:50) 13.8 (00:00) 20.8 8.61 (17:50) 4.17 (17:50) 0 0 0 0 0
14-09-2019 26.2 (16:00) 12.7 (00:00) 19.5 11.11 (15:00) 6.67 (14:20) 0 0 0 0 0
13-09-2019 26.8 (16:30) 11.3 (00:00) 19 10.83 (18:20) 7.22 (18:40) 0 0 0 0 0
12-09-2019 27.3 (17:20) 9.3 (00:00) 18.3 6.39 (18:50) 3.61 (20:50) 0 0 0 0 0
09-09-2019 20.3 (16:30) 9.7 (23:59) 15 10.83 (21:20) 8.06 (21:20) 0.8 0 0 0 0.8
08-09-2019 23.9 (16:30) 9 (00:00) 16.4 7.78 (14:20) 4.17 (00:20) 0 0 0 0 0
07-09-2019 23.2 (15:20) 8.6 (00:00) 15.9 15 (03:10) 9.44 (03:00) 0 0 0 0 0
06-09-2019 21.1 (15:50) 10 (00:00) 15.6 13.61 (05:30) 9.17 (05:30) 0 0 0 0 0
21-08-2019 26 (16:20) 11.4 (00:00) 18.7 7.5 (14:00) 4.17 (23:20) 0 0 0 0 0
04-09-2019 23.5 (16:00) 12.3 (00:00) 17.9 11.67 (15:00) 6.67 (15:00) 0 0 0 0 0
03-09-2019 29.1 (16:20) 10.2 (00:00) 19.7 6.39 (16:00) 3.89 (15:30) 0 0 0 0 0
02-09-2019 23.7 (17:20) 10.8 (00:00) 17.3 13.33 (00:30) 7.5 (02:00) 0 0 0 0 0
01-09-2019 16.2 (15:10) 12.2 (00:00) 14.2 12.78 (21:30) 7.78 (21:30) 0 0 0 0 0
31-08-2019 26.6 (16:40) 14.9 (00:00) 20.8 8.33 (18:40) 4.44 (18:30) 0 0 0 0 0
30-08-2019 31.5 (16:40) 14.6 (00:00) 23.1 8.06 (17:00) 4.72 (17:20) 0 0 0 0 0
29-08-2019 27.2 (16:50) 14.3 (00:00) 20.8 5.83 (16:00) 3.89 (18:40) 0.2 0 0.2 0 0
28-08-2019 25.5 (18:50) 14 (00:00) 19.8 7.78 (18:20) 5 (17:50) 0 0 0 0 0
27-08-2019 26.2 (16:50) 14.5 (00:00) 20.4 9.17 (15:20) 3.33 (16:30) 0 0 0 0 0
26-08-2019 24.5 (15:10) 14 (00:00) 19.3 9.17 (16:00) 5.56 (16:00) 0 0 0 0 0
25-08-2019 20.7 (16:10) 13.8 (00:00) 17.3 16.94 (18:40) 9.72 (18:30) 2.4 0 0.6 1.4 0.4
24-08-2019 31 (15:40) 16.4 (00:00) 23.7 12.5 (16:00) 7.5 (16:00) 0 0 0 0 0
23-08-2019 33.1 (17:00) 18.6 (00:00) 25.8 9.17 (14:40) 5 (15:00) 0 0 0 0 0
22-08-2019 31 (17:00) 12.3 (00:00) 21.7 6.39 (14:40) 3.89 (23:00) 0 0 0 0 0

Gráficas

Temp. máximas Temp. mínimas Temp. medias Precipitaciones Rachas de viento máximas Velocidades máximas media en intervalos de 10 minutos

Datos horarios

Fecha y hora oficial Temperatura (ºC) Velocidad del viento (km/h) Dirección del viento Racha (km/h) Dirección de racha Precipitación (mm) Presión (hPa) Tendencia (hPa) Humedad (%)
2019-09-19 23:00:00 17.8 6 Este 16 Sudeste 0 -- -- 80
2019-09-19 22:00:00 18.5 8 Este 13 Este 0 -- -- 77
2019-09-19 21:00:00 19.2 8 Sudeste 12 Sudeste 0 -- -- 73
2019-09-19 20:00:00 20.5 4 Este 15 Sudeste 0 -- -- 67
2019-09-19 19:00:00 21.8 5 Sudeste 13 Nordeste 0 -- -- 64
2019-09-19 18:00:00 23.2 6 Este 31 Este 0 -- -- 50
2019-09-19 17:00:00 27.3 6 Norte 21 Nordeste 0 -- -- 43
2019-09-19 16:00:00 26.9 10 Nordeste 23 Nordeste 0 -- -- 46
2019-09-19 15:00:00 25.2 5 Sudeste 19 Sudeste 0 -- -- 52
2019-09-19 14:00:00 23.4 10 Nordeste 20 Norte 0 -- -- 62
2019-09-19 13:00:00 20.3 8 Nordeste 15 Nordeste 0 -- -- 74
2019-09-19 12:00:00 16.9 7 Este 13 Nordeste 0 -- -- 90
2019-09-19 11:00:00 15.3 6 Nordeste 11 Nordeste 0 -- -- 95
2019-09-19 10:00:00 14.8 0 Calma 8 Este 0 -- -- 97
2019-09-19 09:00:00 14.4 0 Calma 4 Este 0 -- -- 98
2019-09-19 08:00:00 14.6 0 Calma 5 Nordeste 0 -- -- 98
2019-09-19 07:00:00 14.7 5 Norte 10 Nordeste 0 -- -- 98
2019-09-19 06:00:00 14.9 0 Calma 9 Nordeste 0 -- -- 98
2019-09-19 05:00:00 15.1 3 Nordeste 10 Norte 0 -- -- 98
2019-09-19 04:00:00 15.2 6 Nordeste 9 Norte 0 -- -- 98
2019-09-19 03:00:00 15.4 5 Nordeste 8 Nordeste 0 -- -- 97
2019-09-19 02:00:00 15.7 4 Nordeste 8 Este 0 -- -- 97
2019-09-19 01:00:00 15.9 0 Calma 8 Nordeste 0 -- -- 96
2019-09-19 00:00:00 16.3 0 Calma 5 Este 0 -- -- 94
2019-09-18 23:00:00 16.4 5 Nordeste 7 Nordeste 0 -- -- 92
2019-09-18 22:00:00 17.5 2 Este 8 Noroeste 0 -- -- 88
2019-09-18 21:00:00 19.2 0 Calma 12 Noroeste 0 -- -- 80
2019-09-18 20:00:00 21.8 6 Noroeste 14 Oeste 0 -- -- 67
2019-09-18 19:00:00 22.2 7 Noroeste 19 Norte 0 -- -- 65
2019-09-18 18:00:00 25.1 10 Norte 22 Norte 0 -- -- 53
2019-09-18 17:00:00 25.1 11 Nordeste 28 Nordeste 0 -- -- 50
2019-09-18 16:00:00 25 14 Nordeste 26 Nordeste 0 -- -- 49
2019-09-18 15:00:00 23.5 12 Nordeste 27 Este 0 -- -- 57
2019-09-18 14:00:00 22.9 6 Nordeste 12 Nordeste 0 -- -- 59
2019-09-18 13:00:00 21.1 6 Nordeste 12 Nordeste 0 -- -- 64
2019-09-18 12:00:00 20.3 6 Nordeste 10 Norte 0 -- -- 71
2019-09-18 11:00:00 17.4 5 Nordeste 9 Nordeste 0 -- -- 79
2019-09-18 10:00:00 15.6 3 Noroeste 11 Oeste 0 -- -- 87
2019-09-18 09:00:00 14.3 3 Sur 19 Este 0 -- -- 84
2019-09-18 08:00:00 14.2 12 Este 21 Sudeste 0 -- -- 84
2019-09-18 07:00:00 14.2 8 Este 14 Sudeste 0 -- -- 87
2019-09-18 06:00:00 13.4 0 Calma 9 Nordeste 0 -- -- 93
2019-09-18 05:00:00 13.1 0 Calma 13 Oeste 0 -- -- 97
2019-09-18 04:00:00 12.6 6 Sudoeste 19 Oeste 0 -- -- 94
2019-09-18 03:00:00 14.2 10 Oeste 14 Oeste 0 -- -- 86
2019-09-18 02:00:00 14.5 8 Este 15 Sudeste 0 -- -- 85
2019-09-18 01:00:00 14.7 9 Este 18 Sudeste 0 -- -- 89
2019-09-18 00:00:00 15 4 Nordeste 9 Nordeste 0 -- -- 92
2019-09-17 23:00:00 15.7 4 Nordeste 15 Sudeste 0 -- -- 87
2019-09-17 22:00:00 16 8 Este 13 Este 0 -- -- 85
2019-09-17 21:00:00 16 4 Nordeste 16 Oeste 0.2 -- -- 84
2019-09-15 18:00:00 -- -- -- -- -- -- -- -- --
2019-09-15 17:00:00 27.2 8 Norte 22 Norte 0 -- -- 46
2019-09-15 16:00:00 27.8 9 Norte 24 Nordeste 0 -- -- 44
2019-09-15 15:00:00 26.5 9 Este 21 Nordeste 0 -- -- 47
2019-09-15 14:00:00 24.1 6 Este 16 Norte 0 -- -- 61
2019-09-15 13:00:00 22.6 6 Este 17 Noroeste 0 -- -- 66
2019-09-15 12:00:00 19.7 5 Nordeste 12 Sudoeste 0 -- -- 76
2019-09-15 11:00:00 16.5 5 Sudoeste 11 Nordeste 0 -- -- 97
2019-09-15 10:00:00 14.3 4 Nordeste 12 Nordeste 0 -- -- 98
2019-09-15 09:00:00 13.8 2 Nordeste 10 Nordeste 0 -- -- 97
2019-09-15 08:00:00 14.1 5 Este 8 Nordeste 0 -- -- 96
2019-09-15 07:00:00 14.3 0 Calma 9 Norte 0 -- -- 95
2019-09-15 06:00:00 14.9 3 Oeste 9 Norte 0 -- -- 93
2019-09-15 05:00:00 15.6 3 Nordeste 10 Norte 0 -- -- 89
2019-09-15 04:00:00 15.6 2 Nordeste 7 Nordeste 0 -- -- 89
2019-09-15 03:00:00 15.8 6 Nordeste 8 Nordeste 0 -- -- 88
2019-09-15 02:00:00 16.3 3 Este 7 Norte 0 -- -- 86
2019-09-15 01:00:00 16.9 5 Norte 9 Noroeste 0 -- -- 84
2019-09-15 00:00:00 16.8 4 Nordeste 6 Nordeste 0 -- -- 83
2019-09-14 23:00:00 17.4 6 Norte 13 Nordeste 0 -- -- 80
2019-09-14 22:00:00 18.6 10 Norte 22 Nordeste 0 -- -- 74
2019-09-14 21:00:00 19.9 13 Norte 24 Norte 0 -- -- 68
2019-09-14 20:00:00 21.7 12 Nordeste 26 Nordeste 0 -- -- 60
2019-09-14 19:00:00 23.6 19 Nordeste 35 Nordeste 0 -- -- 55
2019-09-14 18:00:00 25.3 18 Nordeste 32 Nordeste 0 -- -- 49
2019-09-14 17:00:00 26.1 16 Nordeste 34 Nordeste 0 -- -- 46
2019-09-14 16:00:00 26.2 19 Nordeste 32 Nordeste 0 -- -- 45
2019-09-14 15:00:00 25 23 Nordeste 40 Nordeste 0 -- -- 48
2019-09-14 14:00:00 25 21 Nordeste 36 Nordeste 0 -- -- 48
2019-09-14 13:00:00 23.9 11 Nordeste 20 Norte 0 -- -- 53
2019-09-14 12:00:00 20.5 5 Nordeste 19 Oeste 0 -- -- 66
2019-09-14 11:00:00 18.7 5 Nordeste 14 Este 0 -- -- 73
2019-09-14 10:00:00 16 6 Este 10 Noroeste 0 -- -- 86
2019-09-14 09:00:00 14.1 6 Noroeste 12 Norte 0 -- -- 96
2019-09-14 08:00:00 12.8 6 Norte 9 Norte 0 -- -- 94
2019-09-14 07:00:00 14.1 0 Calma 8 Este 0 -- -- 90
2019-09-14 06:00:00 -- -- -- -- -- -- -- -- --
2019-09-14 05:00:00 14 3 Noroeste 14 Noroeste 0 -- -- 91
2019-09-14 04:00:00 14.2 10 Norte 12 Noroeste 0 -- -- 91
2019-09-14 03:00:00 14.8 2 Nordeste 6 Este 0 -- -- 90
2019-09-14 02:00:00 14.9 3 Nordeste 13 Norte 0 -- -- 89
2019-09-14 01:00:00 15 2 Oeste 9 Norte 0 -- -- 89
2019-09-14 00:00:00 15.6 0 Calma 5 Este 0 -- -- 87
2019-09-13 23:00:00 16.3 0 Calma 14 Norte 0 -- -- 83
2019-09-13 22:00:00 17 11 Norte 19 Norte 0 -- -- 80
2019-09-13 21:00:00 18.2 14 Norte 28 Nordeste 0 -- -- 76
2019-09-13 20:00:00 19.9 15 Nordeste 33 Norte 0 -- -- 69
2019-09-13 19:00:00 22.9 21 Nordeste 39 Nordeste 0 -- -- 56
2019-09-13 18:00:00 25.2 23 Nordeste 36 Nordeste 0 -- -- 45
2019-09-13 17:00:00 26.1 19 Nordeste 36 Nordeste 0 -- -- 43
2019-09-13 16:00:00 26.5 18 Nordeste 35 Nordeste 0 -- -- 40
2019-09-13 15:00:00 26.1 13 Nordeste 28 Norte 0 -- -- 46
2019-09-13 14:00:00 23.9 7 Nordeste 15 Noroeste 0 -- -- 54
2019-09-13 13:00:00 20.3 6 Nordeste 11 Este 0 -- -- 69
2019-09-13 12:00:00 16.4 4 Este 12 Nordeste 0 -- -- 86
2019-09-13 11:00:00 13.3 0 Calma 7 Oeste 0 -- -- 99
2019-09-13 10:00:00 12.4 2 Norte 7 Norte 0 -- -- 99
2019-09-13 09:00:00 12 3 Nordeste 10 Este 0 -- -- 99
2019-09-13 08:00:00 11.8 2 Sudoeste 13 Norte 0 -- -- 98
2019-09-13 07:00:00 11.3 4 Norte 11 Noroeste 0 -- -- 97
2019-09-13 06:00:00 12 3 Nordeste 10 Nordeste 0 -- -- 97
2019-09-13 05:00:00 12.3 8 Nordeste 11 Norte 0 -- -- 95
2019-09-13 04:00:00 13.1 3 Nordeste 8 Nordeste 0 -- -- 92
2019-09-13 03:00:00 13.8 6 Norte 12 Norte 0 -- -- 88
2019-09-13 02:00:00 15.3 5 Nordeste 10 Noroeste 0 -- -- 80
2019-09-13 01:00:00 15.9 6 Nordeste 10 Este 0 -- -- 82
2019-09-13 00:00:00 17.1 8 Este 14 Este 0 -- -- 78
2019-09-12 23:00:00 17.3 8 Este 15 Nordeste 0 -- -- 77
2019-09-12 22:00:00 18.1 12 Nordeste 19 Norte 0 -- -- 74
2019-09-12 21:00:00 19.5 13 Norte 21 Noroeste 0 -- -- 66
2019-09-12 20:00:00 21.9 12 Norte 21 Norte 0 -- -- 55
2019-09-12 19:00:00 24.8 6 Noroeste 23 Noroeste 0 -- -- 46
2019-09-12 18:00:00 26.3 11 Noroeste 19 Norte 0 -- -- 42
2019-09-12 17:00:00 27.1 8 Nordeste 21 Nordeste 0 -- -- 39
2019-09-12 16:00:00 26.3 12 Nordeste 23 Nordeste 0 -- -- 40
2019-09-12 15:00:00 24.5 9 Este 18 Nordeste 0 -- -- 40
2019-09-12 14:00:00 22.1 6 Nordeste 14 Norte 0 -- -- 48
2019-09-12 13:00:00 20.6 8 Nordeste 12 Nordeste 0 -- -- 54
2019-09-12 12:00:00 17.8 6 Nordeste 13 Nordeste 0 -- -- 59
2019-09-12 11:00:00 15.3 6 Nordeste 9 Este 0 -- -- 71
2019-09-12 10:00:00 12.7 0 Calma 6 Nordeste 0 -- -- 85
2019-09-12 09:00:00 10.6 2 Nordeste 9 Este 0 -- -- 89
2019-09-12 08:00:00 9.3 0 Calma 7 Nordeste 0 -- -- 93
2019-09-12 07:00:00 9.4 4 Este 11 Nordeste 0 -- -- 97
2019-09-12 06:00:00 9.8 7 Este 8 Este 0 -- -- 97
2019-09-12 05:00:00 9.9 5 Nordeste 6 Nordeste 0 -- -- 96
2019-09-12 04:00:00 10.2 5 Nordeste 8 Norte 0 -- -- 95
2019-09-12 03:00:00 10.8 4 Nordeste 8 Norte 0 -- -- 93
2019-09-12 02:00:00 11.3 6 Nordeste 10 Norte 0 -- -- 91
2019-09-12 01:00:00 11.8 8 Norte 11 Norte 0 -- -- 87
2019-09-12 00:00:00 12.2 8 Nordeste 16 Nordeste 0 -- -- 87
2019-09-11 23:00:00 12.5 10 Norte 19 Nordeste 0 -- -- 87
2019-09-11 22:00:00 13.2 14 Nordeste 21 Nordeste 0 -- -- 86
2019-09-11 21:00:00 14.3 13 Norte 26 Nordeste 0 -- -- 82
2019-09-11 20:00:00 16.4 6 Noroeste 30 Norte 0 -- -- 74
2019-09-11 19:00:00 18.1 11 Nordeste 29 Nordeste 0 -- -- 68
2019-09-11 18:00:00 19.6 13 Norte 28 Norte 0 -- -- 61
2019-09-11 17:00:00 20.6 13 Norte 24 Norte 0 -- -- 56
2019-09-11 16:00:00 20.8 12 Nordeste 32 Nordeste 0 -- -- 55
2019-09-11 15:00:00 19.9 15 Nordeste 31 Nordeste 0 -- -- 58
2019-09-11 14:00:00 18.4 18 Nordeste 35 Nordeste 0 -- -- 62
2019-09-11 13:00:00 16.9 17 Nordeste 31 Nordeste 0 -- -- 69
2019-09-11 12:00:00 14 13 Este 26 Nordeste 0 -- -- 81
2019-09-11 11:00:00 12.6 12 Nordeste 28 Nordeste 0 -- -- 90
2019-09-11 10:00:00 11.3 10 Norte 19 Nordeste 0 -- -- 96
2019-09-11 09:00:00 10.9 12 Norte 16 Norte 0 -- -- 97
2019-09-11 08:00:00 10.9 9 Norte 17 Noroeste 0.2 -- -- 96
2019-09-11 07:00:00 10.6 9 Norte 16 Nordeste 0 -- -- 95
2019-09-11 06:00:00 10.4 12 Nordeste 24 Nordeste 0 -- -- 96
2019-09-11 05:00:00 10.2 14 Norte 21 Norte 0 -- -- 98
2019-09-11 04:00:00 10.2 9 Norte 15 Norte 0 -- -- 98
2019-09-11 03:00:00 10.3 8 Norte 17 Norte 0 -- -- 98
2019-09-11 02:00:00 10.4 10 Norte 18 Norte 0 -- -- 97
2019-09-11 01:00:00 10.3 5 Norte 15 Norte 0.2 -- -- 97
2019-09-11 00:00:00 10.1 8 Nordeste 24 Nordeste 0 -- -- 96
2019-09-10 23:00:00 10 10 Norte 31 Norte 0 -- -- 93
2019-09-10 22:00:00 10.4 15 Nordeste 26 Nordeste 0 -- -- 88
2019-09-10 21:00:00 10.3 14 Nordeste 34 Nordeste 0 -- -- 88
2019-09-10 20:00:00 10.4 13 Nordeste 29 Nordeste 0 -- -- 90
2019-09-10 19:00:00 10.8 8 Nordeste 34 Nordeste 0 -- -- 89
2019-09-10 18:00:00 10.7 9 Nordeste 35 Norte 0 -- -- 94
2019-09-10 17:00:00 11.1 10 Norte 26 Norte 0.2 -- -- 90
2019-09-10 16:00:00 10.2 11 Noroeste 25 Norte 0.2 -- -- 94
2019-09-10 15:00:00 10.9 9 Noroeste 24 Nordeste 0 -- -- 87
2019-09-10 14:00:00 11.8 9 Norte 26 Norte 0 -- -- 87
2019-09-10 13:00:00 10.4 8 Noroeste 27 Norte 0 -- -- 87
2019-09-10 12:00:00 10.6 12 Noroeste 25 Oeste 0 -- -- 84
2019-09-10 11:00:00 12.3 10 Nordeste 19 Nordeste 0 -- -- 81
2019-09-10 10:00:00 9.7 5 Noroeste 18 Noroeste 0 -- -- 90
2019-09-10 09:00:00 8.6 4 Noroeste 17 Noroeste 0 -- -- 93
2019-09-10 08:00:00 8.3 4 Oeste 12 Noroeste 0 -- -- 94
2019-09-10 07:00:00 8.4 8 Oeste 14 Noroeste 0.2 -- -- 95
2019-09-10 06:00:00 8.3 7 Noroeste 21 Noroeste 0 -- -- 94
2019-09-10 05:00:00 8.4 6 Oeste 12 Norte 0.8 -- -- 95
2019-09-10 04:00:00 8.3 3 Nordeste 24 Oeste 0 -- -- 91
2019-09-10 03:00:00 9.1 5 Oeste 12 Noroeste 0 -- -- 92
2019-09-10 02:00:00 9.3 5 Noroeste 15 Norte 0 -- -- 92
2019-09-10 01:00:00 9.1 6 Noroeste 14 Norte 0 -- -- 90
2019-09-10 00:00:00 9.7 8 Norte 21 Nordeste 0 -- -- 86
2019-09-09 23:00:00 10 12 Noroeste 27 Noroeste 0.2 -- -- 91
2019-09-09 22:00:00 11.2 11 Noroeste 39 Oeste 0.6 -- -- 91
2019-09-09 21:00:00 14.2 27 Oeste 37 Oeste 0 -- -- 76
2019-09-09 20:00:00 16.6 17 Oeste 29 Oeste 0 -- -- 63
2019-09-09 19:00:00 18.5 17 Oeste 35 Oeste 0 -- -- 50
2019-09-09 18:00:00 19.4 20 Oeste 32 Oeste 0 -- -- 51
2019-09-09 17:00:00 19.4 18 Sudoeste 32 Oeste 0 -- -- 53
2019-09-09 16:00:00 20 12 Oeste 29 Oeste 0 -- -- 52
2019-09-09 15:00:00 18.1 9 Oeste 23 Oeste 0 -- -- 60
2019-09-09 14:00:00 17.3 8 Oeste 17 Oeste 0 -- -- 61
2019-09-09 13:00:00 15.6 4 Norte 11 Noroeste 0 -- -- 76
2019-09-09 12:00:00 12.7 3 Sudeste 10 Nordeste 0 -- -- 90
2019-09-09 11:00:00 11.4 0 Calma 5 Oeste 0 -- -- 98
2019-09-09 10:00:00 10.6 0 Calma 5 Nordeste 0 -- -- 98
2019-09-09 09:00:00 10.5 2 Sudeste 6 Sudeste 0 -- -- 98
2019-09-09 08:00:00 10.4 0 Calma 6 Oeste 0 -- -- 98
2019-09-09 07:00:00 10.7 2 Nordeste 12 Noroeste 0 -- -- 97
2019-09-09 06:00:00 10.8 5 Noroeste 10 Noroeste 0 -- -- 97
2019-09-09 05:00:00 10.6 0 Calma 8 Noroeste 0 -- -- 97
2019-09-09 04:00:00 10.3 3 Nordeste 11 Norte 0 -- -- 96
2019-09-09 03:00:00 11 9 Norte 13 Norte 0 -- -- 95
2019-09-09 02:00:00 11.4 9 Norte 13 Noroeste 0 -- -- 94
2019-09-09 01:00:00 11.7 3 Este 7 Este 0 -- -- 92
2019-09-09 00:00:00 12.2 3 Este 8 Este 0 -- -- 91
2019-09-08 23:00:00 13.1 5 Este 9 Este 0 -- -- 85
2019-09-08 22:00:00 14.5 4 Este 10 Norte 0 -- -- 79
2019-09-08 21:00:00 16.6 7 Norte 12 Norte 0 -- -- 70
2019-09-08 20:00:00 19.5 8 Noroeste 19 Noroeste 0 -- -- 62
2019-09-08 19:00:00 21.7 10 Noroeste 21 Noroeste 0 -- -- 53
2019-09-08 18:00:00 23.2 8 Noroeste 19 Noroeste 0 -- -- 48
2019-09-08 17:00:00 23.6 8 Norte 19 Nordeste 0 -- -- 46
2019-09-08 16:00:00 23.8 8 Nordeste 24 Nordeste 0 -- -- 45
2019-09-08 15:00:00 23.1 9 Norte 28 Nordeste 0 -- -- 46
2019-09-08 14:00:00 21.6 10 Norte 26 Nordeste 0 -- -- 51
2019-09-08 13:00:00 19.6 10 Nordeste 23 Norte 0 -- -- 57
2019-09-08 12:00:00 16.7 7 Este 14 Nordeste 0 -- -- 64
2019-09-08 11:00:00 14 6 Este 16 Norte 0 -- -- 72
2019-09-08 10:00:00 12.7 5 Nordeste 9 Nordeste 0 -- -- 74
2019-09-08 09:00:00 10.7 5 Nordeste 9 Norte 0 -- -- 84
2019-09-08 08:00:00 9.2 4 Este 10 Nordeste 0 -- -- 87
2019-09-08 07:00:00 9.2 4 Nordeste 13 Norte 0 -- -- 86
2019-09-08 06:00:00 9.3 9 Norte 12 Norte 0 -- -- 84
2019-09-08 05:00:00 10.2 2 Nordeste 9 Este 0 -- -- 85
2019-09-08 04:00:00 10.6 6 Este 17 Sudeste 0 -- -- 83
2019-09-08 03:00:00 11 6 Sudeste 17 Sudeste 0 -- -- 83
2019-09-08 02:00:00 11.5 14 Este 24 Este 0 -- -- 82
2019-09-08 01:00:00 11.2 14 Nordeste 23 Nordeste 0 -- -- 83
2019-09-08 00:00:00 11.3 9 Norte 23 Norte 0 -- -- 81
2019-09-07 23:00:00 12.3 11 Nordeste 25 Nordeste 0 -- -- 75
2019-09-07 22:00:00 13.3 17 Nordeste 31 Norte 0 -- -- 70
2019-09-07 21:00:00 14.3 12 Nordeste 31 Nordeste 0 -- -- 63
2019-09-07 20:00:00 16.1 13 Nordeste 30 Norte 0 -- -- 60
2019-09-07 19:00:00 18.3 14 Nordeste 42 Norte 0 -- -- 54
2019-09-07 18:00:00 20.3 17 Nordeste 34 Nordeste 0 -- -- 46
2019-09-07 17:00:00 22.4 21 Nordeste 41 Nordeste 0 -- -- 27
2019-09-07 16:00:00 22.7 21 Nordeste 40 Nordeste 0 -- -- 24
2019-09-07 15:00:00 22.9 23 Nordeste 39 Nordeste 0 -- -- 29
2019-09-07 14:00:00 22.3 24 Nordeste 39 Nordeste 0 -- -- 32
2019-09-07 13:00:00 20.6 17 Nordeste 37 Nordeste 0 -- -- 34
2019-09-07 12:00:00 17.9 10 Nordeste 23 Nordeste 0 -- -- 44
2019-09-07 11:00:00 14.7 11 Nordeste 28 Nordeste 0 -- -- 59
2019-09-07 10:00:00 12.7 13 Nordeste 28 Norte 0 -- -- 65
2019-09-07 09:00:00 10.9 18 Nordeste 26 Nordeste 0 -- -- 69
2019-09-07 08:00:00 8.8 7 Nordeste 25 Nordeste 0 -- -- 73
2019-09-07 07:00:00 9.9 19 Nordeste 26 Nordeste 0 -- -- 69
2019-09-07 06:00:00 9 4 Sudoeste 12 Norte 0 -- -- 71
2019-09-07 05:00:00 9.7 3 Nordeste 23 Nordeste 0 -- -- 71
2019-09-07 04:00:00 9.8 12 Nordeste 54 Nordeste 0 -- -- 76
2019-09-07 03:00:00 11 34 Nordeste 46 Nordeste 0 -- -- 70
2019-09-07 02:00:00 10.5 15 Nordeste 37 Nordeste 0 -- -- 74
2019-09-07 01:00:00 10.8 10 Nordeste 29 Nordeste 0 -- -- 77
2019-09-07 00:00:00 11.6 12 Nordeste 31 Norte 0 -- -- 76
2019-09-06 23:00:00 12.4 14 Nordeste 40 Norte 0 -- -- 74
2019-09-06 22:00:00 13 7 Nordeste 42 Nordeste 0 -- -- 73
2019-09-06 21:00:00 14 18 Nordeste 40 Nordeste 0 -- -- 70
2019-09-06 20:00:00 15.5 24 Nordeste 38 Nordeste 0 -- -- 65
2019-09-06 19:00:00 17.4 22 Nordeste 38 Nordeste 0 -- -- 58
2019-09-06 18:00:00 18.9 22 Nordeste 39 Nordeste 0 -- -- 53
2019-09-06 17:00:00 20 21 Nordeste 41 Nordeste 0 -- -- 50
2019-09-06 16:00:00 21 21 Nordeste 42 Nordeste 0 -- -- 45
2019-09-06 15:00:00 20.7 21 Nordeste 41 Nordeste 0 -- -- 45
2019-09-06 14:00:00 19.8 23 Nordeste 44 Nordeste 0 -- -- 48
2019-09-06 13:00:00 18.5 24 Nordeste 42 Nordeste 0 -- -- 51
2019-09-06 12:00:00 17.2 24 Nordeste 41 Nordeste 0 -- -- 57
2019-09-06 11:00:00 15.5 24 Nordeste 44 Nordeste 0 -- -- 63
2019-09-06 10:00:00 13.8 22 Nordeste 41 Nordeste 0 -- -- 69
2019-09-06 09:00:00 11.8 16 Nordeste 27 Nordeste 0 -- -- 76
2019-09-06 08:00:00 10.5 21 Nordeste 39 Nordeste 0 -- -- 81
2019-09-06 07:00:00 10.6 20 Este 42 Nordeste 0 -- -- 80
2019-09-06 06:00:00 10.8 22 Nordeste 49 Nordeste 0 -- -- 79
2019-09-06 05:00:00 10.7 22 Nordeste 40 Nordeste 0 -- -- 80
2019-09-06 04:00:00 10.7 15 Nordeste 30 Este 0 -- -- 84
2019-09-06 03:00:00 10.7 12 Nordeste 20 Este 0 -- -- 83
2019-09-06 02:00:00 11.1 11 Nordeste 22 Nordeste 0 -- -- 82
2019-09-06 01:00:00 11.5 17 Nordeste 36 Nordeste 0 -- -- 81
2019-09-06 00:00:00 11.5 16 Nordeste 32 Nordeste 0 -- -- 82
2019-09-05 23:00:00 11.8 18 Nordeste 40 Nordeste 0 -- -- 83
2019-09-05 22:00:00 12.1 18 Nordeste 33 Nordeste 0 -- -- 81
2019-09-05 21:00:00 13 19 Nordeste 37 Nordeste 0 -- -- 77
2019-09-05 20:00:00 15.1 18 Nordeste 41 Norte 0 -- -- 70
2019-09-05 19:00:00 16.7 24 Nordeste 44 Nordeste 0 -- -- 62
2019-09-05 18:00:00 18 23 Nordeste 47 Nordeste 0 -- -- 58
2019-09-05 17:00:00 18.6 21 Nordeste 44 Nordeste 0 -- -- 56
2019-09-05 16:00:00 19.4 22 Nordeste 43 Nordeste 0 -- -- 53
2019-09-05 15:00:00 19.6 22 Nordeste 46 Norte 0 -- -- 52
2019-09-05 14:00:00 19.4 31 Nordeste 47 Nordeste 0 -- -- 51
2019-09-05 13:00:00 18.9 26 Nordeste 43 Nordeste 0 -- -- 53
2019-09-05 12:00:00 17.8 26 Nordeste 48 Nordeste 0 -- -- 53
2019-09-05 11:00:00 15.7 29 Nordeste 59 Este 0 -- -- 57
2019-09-05 10:00:00 13 18 Nordeste 32 Nordeste 0 -- -- 73
2019-09-05 09:00:00 11.8 23 Nordeste 38 Nordeste 0 -- -- 76
2019-09-05 08:00:00 11.4 23 Nordeste 36 Nordeste 0 -- -- 83
2019-09-05 07:00:00 11 19 Nordeste 30 Nordeste 0 -- -- 90
2019-09-05 06:00:00 11.1 16 Nordeste 27 Nordeste 0 -- -- 93
2019-09-05 05:00:00 11.8 15 Nordeste 28 Nordeste 0 -- -- 90
2019-09-05 04:00:00 11.9 18 Nordeste 31 Norte 0 -- -- 92
2019-09-05 03:00:00 12.4 12 Nordeste 31 Nordeste 0 -- -- 92
2019-09-05 02:00:00 13 15 Nordeste 31 Nordeste 0 -- -- 87
2019-09-05 01:00:00 12.4 15 Nordeste 27 Nordeste 0 -- -- 84
2019-09-05 00:00:00 12.7 16 Nordeste 29 Nordeste 0 -- -- 81
2019-09-04 23:00:00 12.9 18 Nordeste 29 Nordeste 0 -- -- 80
2019-09-04 22:00:00 13.7 20 Nordeste 37 Nordeste 0 -- -- 78
2019-09-04 21:00:00 14.8 22 Nordeste 39 Nordeste 0 -- -- 76
2019-09-04 20:00:00 16.6 20 Nordeste 35 Norte 0 -- -- 71
2019-09-04 19:00:00 18.4 20 Nordeste 35 Nordeste 0 -- -- 65
2019-09-04 18:00:00 20.2 19 Nordeste 37 Nordeste 0 -- -- 61
2019-09-04 17:00:00 22.7 18 Nordeste 37 Nordeste 0 -- -- 50
2019-09-04 16:00:00 23.5 16 Nordeste 37 Nordeste 0 -- -- 48
2019-09-04 15:00:00 22.6 24 Nordeste 42 Nordeste 0 -- -- 49
2019-09-04 14:00:00 21.8 19 Nordeste 35 Nordeste 0 -- -- 59
2019-09-04 13:00:00 20.5 13 Nordeste 25 Nordeste 0 -- -- 64
2019-09-04 12:00:00 17.5 8 Este 13 Este 0 -- -- 78
2019-09-04 11:00:00 14 0 Calma 13 Norte 0 -- -- 96
2019-09-04 10:00:00 12.6 4 Norte 14 Nordeste 0 -- -- 98
2019-09-04 09:00:00 12.4 4 Nordeste 9 Nordeste 0 -- -- 98
2019-09-04 08:00:00 12.4 0 Calma 12 Noroeste 0 -- -- 97
2019-09-04 07:00:00 12.4 4 Oeste 12 Noroeste 0 -- -- 97
2019-09-04 06:00:00 12.9 10 Noroeste 16 Noroeste 0 -- -- 95
2019-09-04 05:00:00 13.6 0 Calma 4 Nordeste 0 -- -- 95
2019-09-04 04:00:00 13.9 0 Calma 7 Nordeste 0 -- -- 94
2019-09-04 03:00:00 14.7 2 Nordeste 6 Este 0 -- -- 91
2019-09-04 02:00:00 15.1 6 Nordeste 9 Norte 0 -- -- 89
2019-09-04 01:00:00 16.4 6 Nordeste 14 Nordeste 0 -- -- 83
2019-09-04 00:00:00 16.9 8 Nordeste 13 Nordeste 0 -- -- 80
2019-09-03 23:00:00 17.7 8 Nordeste 10 Nordeste 0 -- -- 78
2019-09-03 22:00:00 19.1 5 Nordeste 6 Nordeste 0 -- -- 72
2019-09-03 21:00:00 21.9 3 Norte 13 Oeste 0 -- -- 60
2019-09-03 20:00:00 23.9 10 Noroeste 18 Noroeste 0 -- -- 54
2019-09-03 19:00:00 26.3 8 Noroeste 22 Norte 0 -- -- 47
2019-09-03 18:00:00 27.9 7 Norte 18 Norte 0 -- -- 41
2019-09-03 17:00:00 28.8 8 Nordeste 20 Este 0 -- -- 36
2019-09-03 16:00:00 28.8 8 Nordeste 23 Este 0 -- -- 36
2019-09-03 15:00:00 27.2 12 Nordeste 23 Este 0 -- -- 38
2019-09-03 14:00:00 25.2 9 Nordeste 14 Nordeste 0 -- -- 46
2019-09-03 13:00:00 22.8 5 Nordeste 12 Nordeste 0 -- -- 54
2019-09-03 12:00:00 19.9 6 Nordeste 11 Nordeste 0 -- -- 64
2019-09-03 11:00:00 17.1 5 Nordeste 9 Nordeste 0 -- -- 72
2019-09-03 10:00:00 14.5 0 Calma 7 Nordeste 0 -- -- 83
2019-09-03 09:00:00 12.1 3 Nordeste 8 Nordeste 0 -- -- 98
2019-09-03 08:00:00 10.7 4 Nordeste 6 Nordeste 0 -- -- 97
2019-09-03 07:00:00 10.7 4 Nordeste 8 Nordeste 0 -- -- 97
2019-09-03 06:00:00 10.8 8 Nordeste 11 Nordeste 0 -- -- 93
2019-09-03 05:00:00 11.8 5 Nordeste 10 Este 0 -- -- 92
2019-09-03 04:00:00 11.8 5 Nordeste 12 Este 0 -- -- 92
2019-09-03 03:00:00 11.6 6 Nordeste 9 Nordeste 0 -- -- 92
2019-09-03 02:00:00 12.2 5 Norte 8 Norte 0 -- -- 90
2019-09-03 01:00:00 12.7 5 Nordeste 9 Nordeste 0 -- -- 88
2019-09-03 00:00:00 13.7 7 Nordeste 16 Nordeste 0 -- -- 84
2019-09-02 23:00:00 15 10 Este 17 Norte 0 -- -- 80
2019-09-02 22:00:00 15.4 10 Norte 20 Norte 0 -- -- 77
2019-09-02 21:00:00 17.1 13 Norte 23 Norte 0 -- -- 70
2019-09-02 20:00:00 19.5 14 Norte 25 Norte 0 -- -- 61
2019-09-02 19:00:00 21.9 13 Norte 24 Nordeste 0 -- -- 53
2019-09-02 18:00:00 23.3 12 Nordeste 26 Nordeste 0 -- -- 48
2019-09-02 17:00:00 23.6 14 Nordeste 33 Nordeste 0 -- -- 48
2019-09-02 16:00:00 23.1 21 Nordeste 32 Nordeste 0 -- -- 50
2019-09-02 15:00:00 22.4 16 Nordeste 33 Nordeste 0 -- -- 51
2019-09-02 14:00:00 20.8 21 Nordeste 34 Nordeste 0 -- -- 55
2019-09-02 13:00:00 19.7 21 Nordeste 37 Nordeste 0 -- -- 56
2019-09-02 12:00:00 18.1 24 Nordeste 41 Nordeste 0 -- -- 60
2019-09-02 11:00:00 16.4 22 Nordeste 37 Nordeste 0 -- -- 66
2019-09-02 10:00:00 15 18 Nordeste 27 Nordeste 0 -- -- 72
2019-09-02 09:00:00 13.1 13 Nordeste 28 Nordeste 0 -- -- 80
2019-09-02 08:00:00 10.8 11 Nordeste 21 Nordeste 0 -- -- 89
2019-09-02 07:00:00 11.4 12 Nordeste 30 Nordeste 0 -- -- 87
2019-09-02 06:00:00 11.5 18 Nordeste 32 Nordeste 0 -- -- 87
2019-09-02 05:00:00 11.9 18 Nordeste 35 Nordeste 0 -- -- 87
2019-09-02 04:00:00 12 21 Nordeste 41 Nordeste 0 -- -- 86
2019-09-02 03:00:00 12.1 22 Nordeste 40 Nordeste 0 -- -- 83
2019-09-02 02:00:00 12.3 27 Nordeste 41 Nordeste 0 -- -- 81
2019-09-02 01:00:00 12.6 17 Nordeste 48 Nordeste 0 -- -- 80
2019-09-02 00:00:00 12.4 19 Nordeste 42 Nordeste 0 -- -- 81
2019-09-01 23:00:00 12.3 13 Nordeste 46 Nordeste 0 -- -- 80
2019-09-01 22:00:00 12.6 21 Nordeste 46 Nordeste 0 -- -- 81
2019-09-01 21:00:00 12.8 24 Nordeste 44 Nordeste 0 -- -- 83
2019-09-01 20:00:00 13.1 18 Nordeste 37 Norte 0 -- -- 80
2019-09-01 19:00:00 13.8 20 Nordeste 38 Nordeste 0 -- -- 81
2019-09-01 18:00:00 13.9 19 Nordeste 39 Nordeste 0 -- -- 82
2019-09-01 17:00:00 14.3 14 Nordeste 31 Norte 0 -- -- 84
2019-09-01 16:00:00 15.4 13 Nordeste 32 Nordeste 0 -- -- 83
2019-09-01 15:00:00 16.1 15 Nordeste 31 Nordeste 0 -- -- 81
2019-09-01 14:00:00 15.5 12 Nordeste 30 Nordeste 0 -- -- 85
2019-09-01 13:00:00 14.9 10 Nordeste 25 Nordeste 0 -- -- 90
2019-09-01 12:00:00 13.9 8 Nordeste 21 Norte 0 -- -- 93
2019-09-01 11:00:00 13.7 3 Sudeste 20 Nordeste 0 -- -- 95
2019-09-01 10:00:00 13.4 5 Norte 15 Norte 0 -- -- 97
2019-09-01 09:00:00 13.2 4 Norte 17 Noroeste 0 -- -- 98
2019-09-01 08:00:00 12.8 6 Norte 10 Norte 0 -- -- 98
2019-09-01 07:00:00 12.9 0 Calma 15 Noroeste 0 -- -- 97
2019-09-01 06:00:00 13.1 8 Noroeste 13 Noroeste 0 -- -- 98
2019-09-01 05:00:00 13.2 6 Norte 10 Noroeste 0 -- -- 98
2019-09-01 04:00:00 13.4 6 Nordeste 9 Norte 0 -- -- 97
2019-09-01 03:00:00 13.5 0 Calma 9 Norte 0 -- -- 96
2019-09-01 02:00:00 14.3 5 Noroeste 12 Noroeste 0 -- -- 96
2019-09-01 01:00:00 14.7 6 Nordeste 9 Este 0 -- -- 94
2019-09-01 00:00:00 15.6 0 Calma 5 Nordeste 0 -- -- 93
2019-08-31 23:00:00 16.2 0 Calma 9 Norte 0 -- -- 91
2019-08-31 22:00:00 16.9 3 Norte 13 Norte 0 -- -- 89
2019-08-31 21:00:00 17.4 6 Norte 13 Norte 0 -- -- 86
2019-08-31 20:00:00 19.6 8 Norte 22 Noroeste 0 -- -- 77
2019-08-31 19:00:00 21 13 Noroeste 30 Norte 0 -- -- 71
2019-08-31 18:00:00 23 13 Noroeste 26 Noroeste 0 -- -- 65
2019-08-31 17:00:00 25.8 9 Norte 27 Nordeste 0 -- -- 56
2019-08-31 16:00:00 25.7 6 Oeste 17 Noroeste 0 -- -- 52
2019-08-31 15:00:00 23 6 Este 15 Nordeste 0 -- -- 66
2019-08-31 14:00:00 19.8 9 Nordeste 17 Nordeste 0 -- -- 79
2019-08-31 13:00:00 18.5 5 Noroeste 17 Noroeste 0 -- -- 87
2019-08-31 12:00:00 16.8 6 Oeste 16 Oeste 0 -- -- 97
2019-08-31 11:00:00 15.6 11 Oeste 17 Oeste 0 -- -- 98
2019-08-31 10:00:00 15.4 13 Oeste 18 Oeste 0 -- -- 98
2019-08-31 09:00:00 15 6 Oeste 18 Oeste 0 -- -- 96
2019-08-31 08:00:00 15.7 7 Oeste 12 Oeste 0 -- -- 94
2019-08-31 07:00:00 16.2 2 Noroeste 9 Oeste 0 -- -- 94
2019-08-31 06:00:00 17.3 0 Calma 3 Nordeste 0 -- -- 89
2019-08-31 05:00:00 17 3 Nordeste 6 Este 0 -- -- 90
2019-08-31 04:00:00 17.3 0 Calma 9 Oeste 0 -- -- 90
2019-08-31 03:00:00 18 0 Calma 12 Sudeste 0 -- -- 86
2019-08-31 02:00:00 18.1 6 Este 10 Este 0 -- -- 89
2019-08-31 01:00:00 18.4 5 Nordeste 7 Nordeste 0 -- -- 88
2019-08-31 00:00:00 19.6 4 Nordeste 5 Nordeste 0 -- -- 80
2019-08-30 23:00:00 20.7 3 Nordeste 6 Nordeste 0 -- -- 77
2019-08-30 22:00:00 21.8 0 Calma 12 Noroeste 0 -- -- 70
2019-08-30 21:00:00 23.4 2 Sudoeste 18 Noroeste 0 -- -- 66
2019-08-30 20:00:00 25.9 9 Noroeste 18 Norte 0 -- -- 59
2019-08-30 19:00:00 28.7 7 Norte 21 Oeste 0 -- -- 51
2019-08-30 18:00:00 31.1 14 Oeste 28 Oeste 0 -- -- 31
2019-08-30 17:00:00 31.4 16 Oeste 29 Noroeste 0 -- -- 31
2019-08-30 16:00:00 31.3 8 Oeste 28 Oeste 0 -- -- 35
2019-08-30 15:00:00 29.8 4 Sur 15 Nordeste 0 -- -- 38
2019-08-30 14:00:00 26.6 9 Este 18 Este 0 -- -- 54
2019-08-30 13:00:00 23.9 8 Nordeste 15 Nordeste 0 -- -- 64
2019-08-30 12:00:00 20.7 7 Nordeste 15 Nordeste 0 -- -- 77
2019-08-30 11:00:00 17.6 4 Nordeste 9 Nordeste 0 -- -- 92
2019-08-30 10:00:00 15.3 0 Calma 5 Sudoeste 0 -- -- 99
2019-08-30 09:00:00 14.8 0 Calma 5 Oeste 0 -- -- 99
2019-08-30 08:00:00 14.7 0 Calma 5 Sudoeste 0 -- -- 99
2019-08-30 07:00:00 14.8 0 Calma -- -- 0 -- -- 99
2019-08-30 06:00:00 15.2 3 Oeste 5 Oeste 0 -- -- 98
2019-08-30 05:00:00 15.7 0 Calma 8 Nordeste 0 -- -- 99
2019-08-30 04:00:00 15.9 2 Este 8 Nordeste 0 -- -- 98
2019-08-30 03:00:00 15.9 7 Nordeste 9 Este 0 -- -- 98
2019-08-30 02:00:00 16.4 0 Calma 10 Norte 0 -- -- 98
2019-08-30 01:00:00 16.5 9 Norte 23 Noroeste 0 -- -- 97
2019-08-30 00:00:00 16.2 5 Nordeste 7 Nordeste 0 -- -- 96
2019-08-29 23:00:00 16.9 2 Este 9 Este 0 -- -- 94
2019-08-29 22:00:00 17.6 4 Este 9 Norte 0 -- -- 90
2019-08-29 21:00:00 19.9 5 Norte 8 Norte 0 -- -- 79
2019-08-29 20:00:00 22.5 5 Noroeste 20 Noroeste 0 -- -- 70
2019-08-29 19:00:00 24.2 14 Noroeste 21 Noroeste 0 -- -- 64
2019-08-29 18:00:00 26.6 9 Norte 17 Noroeste 0 -- -- 56
2019-08-29 17:00:00 27.1 6 Norte 21 Norte 0 -- -- 52
2019-08-29 16:00:00 26.4 10 Nordeste 21 Nordeste 0 -- -- 54
2019-08-29 15:00:00 24.6 6 Sur 19 Nordeste 0 -- -- 60
2019-08-29 14:00:00 22.4 9 Este 17 Este 0 -- -- 71
2019-08-29 13:00:00 19.1 4 Sudeste 13 Nordeste 0 -- -- 85
2019-08-29 12:00:00 15.5 2 Este 11 Nordeste 0 -- -- 99
2019-08-29 11:00:00 14.9 3 Nordeste 11 Nordeste 0 -- -- 99
2019-08-29 10:00:00 14.5 6 Nordeste 8 Este 0 -- -- 99
2019-08-29 09:00:00 14.3 0 Calma 11 Este 0 -- -- 99
2019-08-29 08:00:00 14.3 3 Nordeste 12 Este 0.2 -- -- 99
2019-08-29 07:00:00 14.4 4 Este 9 Este 0 -- -- 99
2019-08-29 06:00:00 14.4 0 Calma 6 Norte 0 -- -- 99
2019-08-29 05:00:00 14.6 4 Norte 8 Nordeste 0 -- -- 99
2019-08-29 04:00:00 14.9 4 Nordeste 10 Noroeste 0 -- -- 98
2019-08-29 03:00:00 15 6 Norte 8 Norte 0 -- -- 98
2019-08-29 02:00:00 15.1 0 Calma 8 Norte 0 -- -- 98
2019-08-29 01:00:00 15.1 5 Nordeste 8 Nordeste 0 -- -- 97
2019-08-29 00:00:00 15.3 6 Este 8 Este 0 -- -- 97
2019-08-28 23:00:00 15.3 5 Este 10 Este 0 -- -- 95
2019-08-28 22:00:00 16.7 2 Oeste 10 Noroeste 0 -- -- 87
2019-08-28 21:00:00 19.7 0 Calma 10 Noroeste 0 -- -- 76
2019-08-28 20:00:00 22.6 7 Nordeste 22 Sudoeste 0 -- -- 67
2019-08-28 19:00:00 25.4 16 Oeste 28 Oeste 0 -- -- 46
2019-08-28 18:00:00 25.1 18 Sudoeste 27 Sur 0 -- -- 48
2019-08-28 17:00:00 24.3 6 Norte 26 Norte 0 -- -- 63
2019-08-28 16:00:00 23.3 5 Noroeste 15 Oeste 0 -- -- 68
2019-08-28 15:00:00 21.2 9 Oeste 15 Oeste 0 -- -- 76
2019-08-28 14:00:00 20.6 4 Sudeste 15 Oeste 0 -- -- 77
2019-08-28 13:00:00 18.3 8 Oeste 17 Nordeste 0 -- -- 86
2019-08-28 12:00:00 16.8 4 Nordeste 12 Oeste 0 -- -- 93
2019-08-28 11:00:00 15.7 2 Noroeste 9 Oeste 0 -- -- 98
2019-08-28 10:00:00 14.7 3 Oeste 9 Oeste 0 -- -- 99
2019-08-28 09:00:00 14.5 0 Calma 7 Noroeste 0 -- -- 99
2019-08-28 08:00:00 14 0 Calma 8 Oeste 0 -- -- 99
2019-08-28 07:00:00 14.2 4 Oeste 7 Este 0 -- -- 98
2019-08-28 06:00:00 14.8 4 Este 8 Este 0 -- -- 98
2019-08-28 05:00:00 15.2 0 Calma 6 Este 0 -- -- 98
2019-08-28 04:00:00 15.2 0 Calma 6 Oeste 0 -- -- 98
2019-08-28 03:00:00 15.1 4 Oeste 7 Este 0 -- -- 97
2019-08-28 02:00:00 15.6 5 Este 8 Nordeste 0 -- -- 97
2019-08-28 01:00:00 15.5 0 Calma 6 Este 0 -- -- 96
2019-08-28 00:00:00 15.7 5 Nordeste 12 Oeste 0 -- -- 94
2019-08-27 23:00:00 16.9 2 Este 7 Este 0 -- -- 90
2019-08-27 22:00:00 17.9 2 Nordeste 6 Nordeste 0 -- -- 86
2019-08-27 21:00:00 19.8 0 Calma 15 Noroeste 0 -- -- 76
2019-08-27 20:00:00 20.8 12 Norte 17 Noroeste 0 -- -- 74
2019-08-27 19:00:00 23.4 6 Norte 19 Noroeste 0 -- -- 66
2019-08-27 18:00:00 25.2 5 Noroeste 23 Sudoeste 0 -- -- 56
2019-08-27 17:00:00 25.9 10 Oeste 22 Oeste 0 -- -- 51
2019-08-27 16:00:00 25.9 7 Noroeste 33 Oeste 0 -- -- 50
2019-08-27 15:00:00 24 9 Oeste 19 Oeste 0 -- -- 59
2019-08-27 14:00:00 22.2 10 Oeste 16 Oeste 0 -- -- 64
2019-08-27 13:00:00 20.1 5 Oeste 17 Oeste 0 -- -- 71
2019-08-27 12:00:00 17.9 2 Este 9 Nordeste 0 -- -- 83
2019-08-27 11:00:00 16.2 3 Este 9 Nordeste 0 -- -- 89
2019-08-27 10:00:00 15.3 3 Noroeste 8 Noroeste 0 -- -- 94
2019-08-27 09:00:00 14.8 4 Sudeste 9 Este 0 -- -- 96
2019-08-27 08:00:00 14.5 2 Nordeste 9 Sudeste 0 -- -- 98
2019-08-27 07:00:00 14.9 0 Calma 8 Noroeste 0 -- -- 98
2019-08-27 06:00:00 14.8 0 Calma 4 Oeste 0 -- -- 98
2019-08-27 05:00:00 14.9 2 Noroeste 10 Este 0 -- -- 98
2019-08-27 04:00:00 15.2 4 Este 11 Este 0 -- -- 97
2019-08-27 03:00:00 15.3 2 Norte 11 Noroeste 0 -- -- 97
2019-08-27 02:00:00 15.5 4 Nordeste 8 Nordeste 0 -- -- 97
2019-08-27 01:00:00 15.6 0 Calma 6 Nordeste 0 -- -- 96
2019-08-27 00:00:00 15.8 4 Este 6 Noroeste 0 -- -- 94
2019-08-26 23:00:00 16.5 6 Noroeste 9 Oeste 0 -- -- 92
2019-08-26 22:00:00 16.9 2 Sur 14 Noroeste 0 -- -- 91
2019-08-26 21:00:00 17.2 7 Oeste 18 Oeste 0 -- -- 88
2019-08-26 20:00:00 19.2 9 Oeste 22 Oeste 0 -- -- 81
2019-08-26 19:00:00 22.5 6 Nordeste 20 Nordeste 0 -- -- 69
2019-08-26 18:00:00 20.5 3 Nordeste 19 Noroeste 0 -- -- 75
2019-08-26 17:00:00 19.4 8 Norte 29 Noroeste 0 -- -- 79
2019-08-26 16:00:00 22.9 20 Oeste 33 Oeste 0 -- -- 65
2019-08-26 15:00:00 24.1 8 Este 16 Este 0 -- -- 46
2019-08-26 14:00:00 23.9 8 Nordeste 15 Nordeste 0 -- -- 60
2019-08-26 13:00:00 20.3 4 Nordeste 12 Este 0 -- -- 73
2019-08-26 12:00:00 18.3 4 Nordeste 12 Este 0 -- -- 83
2019-08-26 11:00:00 15.7 7 Nordeste 11 Nordeste 0 -- -- 95
2019-08-26 10:00:00 15.1 2 Nordeste 9 Noroeste 0 -- -- 97
2019-08-26 09:00:00 14.2 2 Sur 12 Sudeste 0 -- -- 98
2019-08-26 08:00:00 14.3 7 Nordeste 10 Nordeste 0 -- -- 97
2019-08-26 07:00:00 14.5 2 Nordeste 10 Noroeste 0 -- -- 97
2019-08-26 06:00:00 14.6 2 Noroeste 9 Noroeste 0 -- -- 97
2019-08-26 05:00:00 14.5 4 Noroeste 13 Oeste 0 -- -- 97
2019-08-26 04:00:00 14.6 3 Norte 10 Norte 0 -- -- 96
2019-08-26 03:00:00 14.8 4 Nordeste 8 Nordeste 0 -- -- 95
2019-08-26 02:00:00 15.5 0 Calma 8 Oeste 0 -- -- 90
2019-08-26 01:00:00 16.6 0 Calma 5 Nordeste 0 -- -- 77
2019-08-26 00:00:00 16.7 3 Noroeste 11 Oeste 0 -- -- 80
2019-08-25 23:00:00 16.8 5 Oeste 12 Norte 0 -- -- 80
2019-08-25 22:00:00 17.3 7 Nordeste 11 Este 0 -- -- 75
2019-08-25 21:00:00 18 0 Calma 13 Norte 0 -- -- 71
2019-08-25 20:00:00 19.1 0 Calma 23 Nordeste 0 -- -- 68
2019-08-25 19:00:00 18.9 26 Sudeste 61 Este 0.4 -- -- 65
2019-08-25 18:00:00 18.6 18 Sudeste 26 Este 0.6 -- -- 69
2019-08-25 17:00:00 20.3 11 Sudeste 23 Sudeste 0 -- -- 64
2019-08-25 16:00:00 20.3 14 Este 36 Sudeste 0.2 -- -- 66
2019-08-25 15:00:00 17.6 18 Sudeste 27 Sudeste 0.6 -- -- 90
2019-08-25 14:00:00 16.1 12 Este 19 Este 0 -- -- 94
2019-08-25 13:00:00 15.4 6 Oeste 30 Sudoeste 0 -- -- 97
2019-08-25 12:00:00 15.2 20 Sudoeste 35 Sudoeste 0.6 -- -- 94
2019-08-25 11:00:00 15.4 6 Nordeste 10 Sudeste 0 -- -- 95
2019-08-25 10:00:00 14.2 4 Norte 9 Este 0 -- -- 98
2019-08-25 09:00:00 14 0 Calma 10 Este 0 -- -- 98
2019-08-25 08:00:00 13.9 3 Noroeste 9 Nordeste 0 -- -- 97
2019-08-25 07:00:00 13.8 0 Calma 9 Este 0 -- -- 97
2019-08-25 06:00:00 14 3 Norte 8 Nordeste 0 -- -- 96
2019-08-25 05:00:00 14.1 0 Calma 9 Nordeste 0 -- -- 96
2019-08-25 04:00:00 14.1 5 Este 9 Nordeste 0 -- -- 96
2019-08-25 03:00:00 14.1 5 Este 11 Este 0 -- -- 96
2019-08-25 02:00:00 14.9 0 Calma 9 Nordeste 0 -- -- 89
2019-08-25 01:00:00 15.7 7 Nordeste 10 Norte 0 -- -- 86
2019-08-25 00:00:00 16.4 7 Nordeste 8 Nordeste 0 -- -- 82
2019-08-24 23:00:00 18.3 5 Este 7 Nordeste 0 -- -- 74
2019-08-24 22:00:00 18.8 6 Noroeste 8 Oeste 0 -- -- 70
2019-08-24 21:00:00 21.2 4 Oeste 15 Noroeste 0 -- -- 63
2019-08-24 20:00:00 23.4 12 Noroeste 17 Noroeste 0 -- -- 56
2019-08-24 19:00:00 27.1 11 Oeste 31 Oeste 0 -- -- 44
2019-08-24 18:00:00 30 13 Oeste 34 Oeste 0 -- -- 37
2019-08-24 17:00:00 30.8 12 Oeste 35 Sudoeste 0 -- -- 34
2019-08-24 16:00:00 30.6 27 Sudoeste 45 Sudoeste 0 -- -- 30
2019-08-24 15:00:00 30.4 19 Sudoeste 43 Oeste 0 -- -- 32
2019-08-24 14:00:00 30 18 Sudoeste 40 Oeste 0 -- -- 35
2019-08-24 13:00:00 28.9 12 Oeste 26 Sudoeste 0 -- -- 38
2019-08-24 12:00:00 27.4 4 Noroeste 12 Sudoeste 0 -- -- 43
2019-08-24 11:00:00 25.2 3 Sudeste 13 Oeste 0 -- -- 50
2019-08-24 10:00:00 22.2 9 Oeste 16 Oeste 0 -- -- 56
2019-08-24 09:00:00 20.2 4 Oeste 9 Nordeste 0 -- -- 58
2019-08-24 08:00:00 18.3 5 Este 10 Este 0 -- -- 61
2019-08-24 07:00:00 18.8 5 Este 13 Oeste 0 -- -- 59
2019-08-24 06:00:00 18.8 8 Oeste 13 Sudeste 0 -- -- 61
2019-08-24 05:00:00 20.1 11 Sudeste 15 Este 0 -- -- 56
2019-08-24 04:00:00 20.6 3 Sudeste 12 Sudeste 0 -- -- 54
2019-08-24 03:00:00 20.7 5 Sudeste 14 Sudeste 0 -- -- 54
2019-08-24 02:00:00 20.9 6 Este 10 Este 0 -- -- 54
2019-08-24 01:00:00 21.6 2 Norte 6 Norte 0 -- -- 52
2019-08-24 00:00:00 22.2 0 Calma 6 Oeste 0 -- -- 50
2019-08-23 23:00:00 23.3 0 Calma 14 Noroeste 0 -- -- 47
2019-08-23 22:00:00 24.8 9 Norte 22 Noroeste 0 -- -- 42
2019-08-23 21:00:00 26.8 8 Oeste 18 Noroeste 0 -- -- 39
2019-08-23 20:00:00 30.4 10 Noroeste 24 Oeste 0 -- -- 33
2019-08-23 19:00:00 31.9 13 Oeste 30 Sudoeste 0 -- -- 26
2019-08-23 18:00:00 32.4 12 Oeste 27 Oeste 0 -- -- 27
2019-08-23 17:00:00 33.1 12 Oeste 27 Sudoeste 0 -- -- 26
2019-08-23 16:00:00 32.1 12 Sudoeste 30 Oeste 0 -- -- 26
2019-08-23 15:00:00 31.2 18 Sudoeste 33 Sudoeste 0 -- -- 28
2019-08-23 14:00:00 31.4 12 Nordeste 21 Nordeste 0 -- -- 28
2019-08-23 13:00:00 29.5 6 Nordeste 11 Este 0 -- -- 34
2019-08-23 12:00:00 26.9 5 Sur 15 Este 0 -- -- 41
2019-08-23 11:00:00 24.3 10 Este 18 Sudeste 0 -- -- 40
2019-08-23 10:00:00 21.6 10 Sudeste 16 Este 0 -- -- 43
2019-08-23 09:00:00 20.2 10 Sudeste 18 Este 0 -- -- 41
2019-08-23 08:00:00 19.1 10 Sudeste 15 Sudeste 0 -- -- 40
2019-08-23 07:00:00 18.6 5 Sudeste 22 Sudeste 0 -- -- 46
2019-08-23 06:00:00 19.7 17 Sudeste 22 Sudeste 0 -- -- 40
2019-08-23 05:00:00 19.8 13 Sudeste 20 Sudeste 0 -- -- 50
2019-08-23 04:00:00 19.2 13 Este 19 Sudeste 0 -- -- 61
2019-08-23 03:00:00 19.7 13 Sudeste 17 Sudeste 0 -- -- 63
2019-08-23 02:00:00 20.1 11 Sudeste 22 Este 0 -- -- 63
2019-08-23 01:00:00 20.9 18 Sudeste 26 Sudeste 0 -- -- 61
2019-08-23 00:00:00 21.4 12 Sudeste 18 Sudeste 0 -- -- 59
2019-08-22 23:00:00 21.7 14 Sudeste 20 Sudeste 0 -- -- 58
2019-08-22 22:00:00 22.6 8 Norte 16 Norte 0 -- -- 50
2019-08-22 21:00:00 24.5 7 Norte 17 Nordeste 0 -- -- 43
2019-08-22 20:00:00 26.9 6 Noroeste 19 Noroeste 0 -- -- 42
2019-08-22 19:00:00 28.9 7 Norte 22 Norte 0 -- -- 38
2019-08-22 18:00:00 30.3 9 Nordeste 18 Norte 0 -- -- 30
2019-08-22 17:00:00 31 10 Nordeste 22 Nordeste 0 -- -- 25
2019-08-22 16:00:00 29.9 5 Sudeste 14 Nordeste 0 -- -- 27
2019-08-22 15:00:00 28.9 5 Noroeste 23 Nordeste 0 -- -- 31
2019-08-22 14:00:00 26.2 6 Este 12 Este 0 -- -- 51
2019-08-22 13:00:00 23.9 8 Nordeste 13 Nordeste 0 -- -- 56
2019-08-22 12:00:00 20 6 Nordeste 10 Nordeste 0 -- -- 72
2019-08-22 11:00:00 17.6 2 Este 8 Sur 0 -- -- 82
2019-08-22 10:00:00 14 0 Calma 6 Este 0 -- -- 99
2019-08-22 09:00:00 12.7 0 Calma 6 Nordeste 0 -- -- 99
2019-08-22 08:00:00 12.3 2 Nordeste 9 Nordeste 0 -- -- 98
2019-08-22 07:00:00 12.6 4 Noroeste 17 Noroeste 0 -- -- 98
2019-08-22 06:00:00 12.8 9 Norte 12 Norte 0 -- -- 96
2019-08-22 05:00:00 13 5 Noroeste 11 Norte 0 -- -- 96
2019-08-22 04:00:00 13.2 4 Nordeste 8 Norte 0 -- -- 95
2019-08-22 03:00:00 14.3 4 Nordeste 13 Este 0 -- -- 91
2019-08-22 02:00:00 14 8 Nordeste 13 Este 0 -- -- 93
2019-08-22 01:00:00 14.5 8 Norte 15 Nordeste 0 -- -- 89
2019-08-22 00:00:00 15.4 11 Nordeste 22 Nordeste 0 -- -- 87
2019-08-21 23:00:00 15.8 11 Norte 20 Nordeste 0 -- -- 87
2019-08-21 22:00:00 16.5 11 Norte 22 Norte 0 -- -- 84
2019-08-21 21:00:00 18.1 10 Norte 21 Noroeste 0 -- -- 77
2019-08-21 20:00:00 21.1 6 Norte 25 Noroeste 0 -- -- 67
2019-08-21 19:00:00 23 10 Noroeste 25 Noroeste 0 -- -- 60
2019-08-21 18:00:00 24.8 10 Noroeste 27 Norte 0 -- -- 53
2019-08-21 17:00:00 25.4 9 Norte 22 Noroeste 0 -- -- 48
2019-08-21 16:00:00 25.9 9 Norte 22 Nordeste 0 -- -- 43
2019-08-21 15:00:00 24.8 9 Nordeste 27 Nordeste 0 -- -- 47
2019-08-21 14:00:00 23.4 10 Nordeste 27 Noroeste 0 -- -- 49
2019-08-21 13:00:00 21.3 10 Nordeste 17 Nordeste 0 -- -- 56
2019-08-21 12:00:00 18.8 10 Este 17 Nordeste 0 -- -- 68
2019-08-21 11:00:00 16.6 8 Este 13 Este 0 -- -- 77
2019-08-21 10:00:00 14.5 3 Sudeste 9 Nordeste 0 -- -- 88
2019-08-21 09:00:00 12.4 6 Nordeste 12 Nordeste 0 -- -- 97
2019-08-21 08:00:00 11.4 6 Norte 10 Norte 0 -- -- 96
2019-08-21 07:00:00 12.2 4 Este 10 Este 0 -- -- 93
2019-08-21 06:00:00 12.2 3 Nordeste 6 Nordeste 0 -- -- 93
2019-08-21 05:00:00 12.6 4 Nordeste 8 Nordeste 0 -- -- 91
2019-08-21 04:00:00 12.4 3 Nordeste 10 Nordeste 0 -- -- 92
2019-08-21 03:00:00 13.2 4 Nordeste 10 Nordeste 0 -- -- 90
2019-08-21 02:00:00 13.2 6 Nordeste 9 Nordeste 0 -- -- 90
2019-08-21 01:00:00 13.2 9 Nordeste 13 Norte 0 -- -- 89
2019-08-21 00:00:00 13.7 9 Nordeste 17 Norte 0 -- -- 88